createdAt,value
2023-04-04T00:00:59.279Z,49.24
2023-04-04T00:03:31.033Z,49.04
2023-04-04T00:05:57.686Z,49.20
2023-04-04T00:08:29.501Z,49.19
2023-04-04T00:11:00.108Z,49.44
2023-04-04T00:13:27.122Z,49.24
2023-04-04T00:15:58.873Z,49.46
2023-04-04T00:18:25.769Z,49.53
2023-04-04T00:20:55.534Z,49.72
2023-04-04T00:23:29.941Z,49.78
2023-04-04T00:25:59.590Z,49.49
2023-04-04T00:28:26.581Z,50.09
2023-04-04T00:30:53.555Z,49.65
2023-04-04T00:33:25.658Z,49.84
2023-04-04T00:35:54.847Z,50.02
2023-04-04T00:38:23.652Z,49.96
2023-04-04T00:40:50.499Z,49.92
2023-04-04T00:43:19.497Z,50.05
2023-04-04T00:45:46.730Z,50.37
2023-04-04T00:48:13.504Z,49.98
2023-04-04T00:50:40.294Z,50.33
2023-04-04T00:53:07.452Z,50.16
2023-04-04T00:55:36.307Z,50.22
2023-04-04T00:58:05.274Z,50.35
2023-04-04T01:00:42.432Z,50.08
2023-04-04T01:03:14.292Z,50.31
2023-04-04T01:05:43.108Z,50.41
2023-04-04T01:08:11.954Z,50.46
2023-04-04T01:10:41.760Z,50.54
2023-04-04T01:13:10.834Z,50.54
2023-04-04T01:18:27.654Z,50.42
2023-04-04T01:21:02.299Z,50.70
2023-04-04T01:24:05.098Z,50.74
2023-04-04T01:26:37.576Z,50.81
2023-04-04T01:29:06.381Z,51.12
2023-04-04T01:31:44.913Z,50.99
2023-04-04T01:34:27.017Z,51.34
2023-04-04T01:36:57.016Z,51.07
2023-04-04T01:39:37.040Z,51.70
2023-04-04T01:42:10.097Z,51.32
2023-04-04T01:44:42.501Z,51.61
2023-04-04T01:47:15.308Z,51.61
2023-04-04T01:49:46.593Z,51.31
2023-04-04T01:52:13.041Z,51.14
2023-04-04T01:54:42.139Z,51.31
2023-04-04T01:57:08.797Z,51.40
2023-04-04T01:59:37.742Z,51.31
2023-04-04T02:02:06.636Z,51.18
2023-04-04T02:04:35.774Z,51.34
2023-04-04T02:07:05.180Z,51.03
2023-04-04T02:09:39.025Z,51.41
2023-04-04T02:12:08.383Z,51.24
2023-04-04T02:14:35.834Z,51.34
2023-04-04T02:17:02.496Z,51.18
2023-04-04T02:19:32.195Z,51.43
2023-04-04T02:21:58.851Z,51.39
2023-04-04T02:24:27.937Z,51.35
2023-04-04T02:26:54.664Z,51.21
2023-04-04T02:29:23.732Z,51.29
2023-04-04T02:31:52.729Z,51.15
2023-04-04T02:34:19.414Z,51.31
2023-04-04T02:36:51.166Z,51.23
2023-04-04T02:39:20.040Z,51.30
2023-04-04T02:41:54.439Z,51.16
2023-04-04T02:44:23.191Z,51.01
2023-04-04T02:46:54.748Z,51.13
2023-04-04T02:49:21.632Z,51.14
2023-04-04T02:51:50.721Z,51.17
2023-04-04T02:54:19.483Z,51.07
2023-04-04T02:56:46.096Z,51.13
2023-04-04T02:59:12.805Z,51.00
2023-04-04T03:01:39.790Z,50.99
2023-04-04T03:04:07.146Z,51.12
2023-04-04T03:09:15.169Z,50.93
2023-04-04T03:11:46.765Z,51.23
2023-04-04T03:14:15.589Z,51.24
2023-04-04T03:16:50.788Z,51.08
2023-04-04T03:19:19.908Z,51.13
2023-04-04T03:21:48.726Z,51.08
2023-04-04T03:24:17.689Z,51.01
2023-04-04T03:26:46.540Z,51.24
2023-04-04T03:29:15.433Z,51.35
2023-04-04T03:31:46.867Z,51.29
2023-04-04T03:34:17.641Z,51.37
2023-04-04T03:36:47.497Z,51.09
2023-04-04T03:39:17.057Z,51.31
2023-04-04T03:41:44.301Z,51.25
2023-04-04T03:44:11.659Z,51.32
2023-04-04T03:46:40.306Z,51.03
2023-04-04T03:49:12.182Z,50.94
2023-04-04T03:51:43.469Z,50.99
2023-04-04T03:54:10.056Z,51.24
2023-04-04T03:56:36.686Z,50.99
2023-04-04T03:59:03.432Z,51.18
2023-04-04T04:01:32.759Z,51.13
2023-04-04T04:04:01.196Z,50.86
2023-04-04T04:06:30.228Z,51.13
2023-04-04T04:09:02.036Z,51.00
2023-04-04T04:11:31.782Z,50.99
2023-04-04T04:14:03.677Z,50.95
2023-04-04T04:16:32.509Z,51.05
2023-04-04T04:18:59.195Z,50.92
2023-04-04T04:21:28.728Z,50.92
2023-04-04T04:24:00.142Z,50.88
2023-04-04T04:26:29.102Z,51.01
2023-04-04T04:28:57.972Z,50.66
2023-04-04T04:31:26.999Z,50.98
2023-04-04T04:33:58.359Z,50.67
2023-04-04T04:36:27.481Z,50.82
2023-04-04T04:38:56.314Z,50.71
2023-04-04T04:41:23.123Z,50.72
2023-04-04T04:43:52.643Z,50.67
2023-04-04T04:46:19.260Z,50.78
2023-04-04T04:48:48.215Z,50.70
2023-04-04T04:51:17.676Z,50.64
2023-04-04T04:53:49.497Z,50.72
2023-04-04T04:56:18.574Z,50.67
2023-04-04T04:58:47.607Z,50.87
2023-04-04T05:01:16.593Z,50.65
2023-04-04T05:03:43.215Z,50.72
2023-04-04T05:06:14.598Z,50.86
2023-04-04T05:08:43.399Z,50.66
2023-04-04T05:11:12.711Z,50.74
2023-04-04T05:13:42.653Z,50.61
2023-04-04T05:16:11.712Z,50.76
2023-04-04T05:18:38.604Z,50.89
2023-04-04T05:21:10.521Z,50.65
2023-04-04T05:23:39.935Z,50.77
2023-04-04T05:26:06.680Z,50.59
2023-04-04T05:28:35.562Z,50.86
2023-04-04T05:31:04.540Z,50.78
2023-04-04T05:33:36.262Z,50.73
2023-04-04T05:38:57.412Z,50.74
2023-04-04T05:41:26.345Z,50.95
2023-04-04T05:43:55.138Z,50.71
2023-04-04T05:46:24.663Z,50.92
2023-04-04T05:48:54.290Z,50.94
2023-04-04T05:51:21.032Z,50.91
2023-04-04T05:53:47.833Z,50.93
2023-04-04T05:56:14.661Z,50.70
2023-04-04T05:58:43.441Z,50.75
2023-04-04T06:01:15.010Z,50.92
2023-04-04T06:03:41.743Z,45.42
2023-04-04T06:06:10.190Z,45.86
2023-04-04T06:08:52.395Z,46.07
2023-04-04T06:11:23.595Z,46.15
2023-04-04T06:13:55.830Z,46.91
2023-04-04T06:16:24.678Z,47.13
2023-04-04T06:18:52.708Z,47.01
2023-04-04T06:21:20.687Z,47.11
2023-04-04T06:26:28.429Z,48.82
2023-04-04T06:28:57.648Z,48.88
2023-04-04T06:31:29.578Z,49.03
2023-04-04T06:34:01.531Z,49.34
2023-04-04T06:36:32.901Z,50.23
2023-04-04T06:39:01.789Z,49.95
2023-04-04T06:41:28.486Z,50.13
2023-04-04T06:43:59.860Z,50.28
2023-04-04T06:46:30.244Z,50.03
2023-04-04T06:48:59.082Z,49.94
2023-04-04T06:51:25.870Z,50.47
2023-04-04T06:53:57.553Z,49.86
2023-04-04T06:56:24.334Z,50.20
2023-04-04T06:58:57.036Z,49.90
2023-04-04T07:01:23.764Z,49.61
2023-04-04T07:03:54.168Z,49.70
2023-04-04T07:06:25.931Z,49.45
2023-04-04T07:08:55.008Z,49.25
2023-04-04T07:11:24.321Z,49.27
2023-04-04T07:13:51.144Z,49.23
2023-04-04T07:16:20.112Z,49.35
2023-04-04T07:18:48.891Z,49.06
2023-04-04T07:23:53.735Z,49.17
2023-04-04T07:26:24.185Z,49.39
2023-04-04T07:28:53.044Z,49.36
2023-04-04T07:33:59.601Z,49.44
2023-04-04T07:36:31.760Z,49.37
2023-04-04T07:39:04.040Z,49.51
2023-04-04T07:41:30.773Z,49.61
2023-04-04T07:44:01.780Z,49.67
2023-04-04T07:46:33.306Z,49.13
2023-04-04T07:49:02.467Z,48.88
2023-04-04T07:51:31.716Z,48.99
2023-04-04T07:54:04.206Z,48.72
2023-04-04T07:56:33.185Z,48.68
2023-04-04T07:59:04.586Z,48.62
2023-04-04T08:01:33.502Z,48.66
2023-04-04T08:04:02.882Z,48.50
2023-04-04T08:06:32.079Z,48.49
2023-04-04T08:08:59.192Z,48.46
2023-04-04T08:11:28.630Z,48.30
2023-04-04T08:13:55.665Z,48.47
2023-04-04T08:16:27.013Z,48.35
2023-04-04T08:18:56.070Z,48.13
2023-04-04T08:21:23.228Z,48.24
2023-04-04T08:23:50.494Z,48.20
2023-04-04T08:26:19.276Z,48.17
2023-04-04T08:28:48.129Z,48.14
2023-04-04T08:31:20.035Z,48.24
2023-04-04T08:33:49.012Z,48.19
2023-04-04T08:36:17.899Z,48.13
2023-04-04T08:38:49.286Z,48.20
2023-04-04T08:41:23.221Z,48.19
2023-04-04T08:43:54.579Z,48.09
2023-04-04T08:46:27.527Z,48.13
2023-04-04T08:48:56.546Z,48.13
2023-04-04T08:51:23.222Z,48.23
2023-04-04T08:53:55.901Z,48.14
2023-04-04T08:56:25.197Z,48.27
2023-04-04T08:58:56.594Z,48.26
2023-04-04T09:01:23.605Z,48.25
2023-04-04T09:03:52.619Z,48.20
2023-04-04T09:06:20.151Z,48.13
2023-04-04T09:08:46.820Z,48.18
2023-04-04T09:11:13.528Z,48.01
2023-04-04T09:13:42.731Z,48.15
2023-04-04T09:16:11.923Z,48.08
2023-04-04T09:18:43.247Z,48.09
2023-04-04T09:21:13.049Z,47.88
2023-04-04T09:23:43.826Z,48.06
2023-04-04T09:26:13.412Z,47.88
2023-04-04T09:28:43.086Z,47.89
2023-04-04T09:31:12.403Z,47.88
2023-04-04T09:33:39.323Z,47.81
2023-04-04T09:36:12.890Z,47.88
2023-04-04T09:38:43.281Z,47.81
2023-04-04T09:41:12.477Z,47.82
2023-04-04T09:43:39.865Z,47.98
2023-04-04T09:46:10.900Z,47.82
2023-04-04T09:48:45.484Z,47.86
2023-04-04T09:51:12.856Z,47.85
2023-04-04T09:53:42.456Z,47.91
2023-04-04T09:56:11.409Z,47.95
2023-04-04T09:58:46.260Z,48.07
2023-04-04T10:01:19.447Z,47.86
2023-04-04T10:03:54.382Z,47.97
2023-04-04T10:06:24.583Z,47.91
2023-04-04T10:08:56.650Z,47.75
2023-04-04T10:11:36.297Z,47.94
2023-04-04T10:14:05.722Z,47.81
2023-04-04T10:16:37.935Z,47.78
2023-04-04T10:19:07.973Z,47.88
2023-04-04T10:21:37.512Z,47.86
2023-04-04T10:24:09.922Z,47.71
2023-04-04T10:26:37.292Z,47.94
2023-04-04T10:29:09.310Z,47.64
2023-04-04T10:31:40.772Z,47.73
2023-04-04T10:34:22.742Z,47.66
2023-04-04T10:36:54.148Z,47.76
2023-04-04T10:39:28.310Z,47.81
2023-04-04T10:41:56.616Z,47.69
2023-04-04T10:44:41.748Z,47.84
2023-04-04T10:47:16.643Z,47.60
2023-04-04T10:49:46.744Z,47.67
2023-04-04T10:52:23.001Z,47.52
2023-04-04T10:54:57.140Z,47.74
2023-04-04T10:57:23.925Z,47.48
2023-04-04T11:00:13.191Z,47.61
2023-04-04T11:02:50.398Z,47.59
2023-04-04T11:05:56.171Z,47.61
2023-04-04T11:08:27.506Z,47.32
2023-04-04T11:10:59.450Z,47.50
2023-04-04T11:13:37.898Z,47.54
2023-04-04T11:16:07.929Z,47.43
2023-04-04T11:18:42.860Z,47.54
2023-04-04T11:21:20.345Z,47.40
2023-04-04T11:23:50.319Z,47.45
2023-04-04T11:26:26.248Z,47.25
2023-04-04T11:28:57.621Z,47.46
2023-04-04T11:31:28.992Z,47.31
2023-04-04T11:34:14.436Z,47.41
2023-04-04T11:36:45.266Z,47.26
2023-04-04T11:39:21.144Z,47.31
2023-04-04T11:42:13.599Z,47.23
2023-04-04T11:44:43.164Z,47.27
2023-04-04T11:47:11.442Z,47.25
2023-04-04T11:49:40.963Z,47.34
2023-04-04T11:52:20.350Z,47.53
2023-04-04T11:54:47.833Z,47.59
2023-04-04T11:57:18.016Z,47.55
2023-04-04T11:59:52.343Z,47.28
2023-04-04T12:02:27.410Z,47.48
2023-04-04T12:04:54.377Z,47.40
2023-04-04T12:07:21.101Z,47.25
2023-04-04T12:09:48.324Z,47.47
2023-04-04T12:12:16.433Z,47.45
2023-04-04T12:14:45.855Z,47.18
2023-04-04T12:17:12.524Z,46.99
2023-04-04T12:19:39.798Z,47.15
2023-04-04T12:22:11.896Z,42.22
2023-04-04T12:24:38.682Z,37.91
2023-04-04T12:27:13.106Z,36.98
2023-04-04T12:29:45.519Z,36.29
2023-04-04T12:32:14.411Z,41.15
2023-04-04T12:34:49.892Z,42.99
2023-04-04T12:37:21.771Z,43.68
2023-04-04T12:39:51.232Z,44.12
2023-04-04T12:42:23.095Z,44.32
2023-04-04T12:47:55.211Z,44.82
2023-04-04T12:50:29.832Z,45.21
2023-04-04T12:53:27.887Z,44.93
2023-04-04T12:56:03.207Z,45.01
2023-04-04T12:58:30.019Z,44.81
2023-04-04T13:01:04.955Z,44.71
2023-04-04T13:03:33.881Z,44.72
2023-04-04T13:06:02.648Z,44.90
2023-04-04T13:08:31.728Z,45.30
2023-04-04T13:11:06.330Z,45.43
2023-04-04T13:13:40.226Z,45.55
2023-04-04T13:16:11.714Z,45.88
2023-04-04T13:21:16.062Z,45.77
2023-04-04T13:23:42.807Z,45.65
2023-04-04T13:26:12.590Z,45.69
2023-04-04T13:28:39.318Z,45.81
2023-04-04T13:31:08.482Z,45.88
2023-04-04T13:33:35.863Z,45.98
2023-04-04T13:36:05.586Z,45.75
2023-04-04T13:38:37.216Z,46.04
2023-04-04T13:41:07.053Z,45.99
2023-04-04T13:43:33.893Z,45.86
2023-04-04T13:46:06.114Z,46.03
2023-04-04T13:48:37.586Z,46.01
2023-04-04T13:51:06.365Z,46.19
2023-04-04T13:53:37.742Z,46.06
2023-04-04T13:58:38.703Z,46.16
2023-04-04T14:01:10.067Z,46.02
2023-04-04T14:03:39.137Z,45.87
2023-04-04T14:06:10.271Z,46.06
2023-04-04T14:08:40.567Z,46.01
2023-04-04T14:11:07.634Z,45.41
2023-04-04T14:13:37.444Z,45.55
2023-04-04T14:16:11.318Z,45.43
2023-04-04T14:18:41.049Z,45.57
2023-04-04T14:21:10.712Z,45.46
2023-04-04T14:23:42.008Z,45.21
2023-04-04T14:26:11.257Z,45.17
2023-04-04T14:28:40.859Z,45.18
2023-04-04T14:31:11.252Z,45.31
2023-04-04T14:33:41.647Z,45.03
2023-04-04T14:36:09.892Z,45.16
2023-04-04T14:38:41.955Z,45.08
2023-04-04T14:41:13.974Z,44.98
2023-04-04T14:43:41.939Z,45.03
2023-04-04T14:46:08.855Z,44.95
2023-04-04T14:48:37.708Z,44.98
2023-04-04T14:51:06.392Z,45.13
2023-04-04T14:53:40.767Z,45.06
2023-04-04T14:56:08.691Z,45.01
2023-04-04T14:58:36.318Z,44.83
2023-04-04T15:01:05.333Z,44.84
2023-04-04T15:03:36.700Z,44.94
2023-04-04T15:06:09.335Z,44.90
2023-04-04T15:08:43.882Z,44.97
2023-04-04T15:11:14.645Z,44.92
2023-04-04T15:13:43.265Z,44.93
2023-04-04T15:16:13.886Z,44.97
2023-04-04T15:18:43.851Z,45.11
2023-04-04T15:21:18.225Z,44.87
2023-04-04T15:23:47.216Z,45.01
2023-04-04T15:26:17.455Z,45.00
2023-04-04T15:28:49.178Z,44.73
2023-04-04T15:31:18.048Z,44.93
2023-04-04T15:33:59.765Z,44.71
2023-04-04T15:36:58.366Z,44.80
2023-04-04T15:39:27.508Z,44.79
2023-04-04T15:42:00.062Z,44.89
2023-04-04T15:44:30.500Z,44.87
2023-04-04T15:47:09.392Z,44.64
2023-04-04T15:49:41.819Z,44.66
2023-04-04T15:52:15.553Z,44.68
2023-04-04T15:54:48.749Z,44.75
2023-04-04T15:57:18.253Z,44.73
2023-04-04T15:59:48.413Z,44.68
2023-04-04T16:02:20.322Z,44.71
2023-04-04T16:04:47.267Z,44.59
2023-04-04T16:07:16.148Z,44.58
2023-04-04T16:09:46.364Z,44.54
2023-04-04T16:12:15.090Z,44.64
2023-04-04T16:14:48.694Z,44.81
2023-04-04T16:17:21.362Z,44.68
2023-04-04T16:19:52.670Z,44.78
2023-04-04T16:22:22.142Z,42.14
2023-04-04T16:24:53.915Z,44.65
2023-04-04T16:27:21.834Z,44.75
2023-04-04T16:29:51.468Z,44.48
2023-04-04T16:32:18.832Z,44.22
2023-04-04T16:34:48.842Z,44.49
2023-04-04T16:37:16.627Z,44.39
2023-04-04T16:39:49.700Z,44.30
2023-04-04T16:44:57.331Z,44.23
2023-04-04T16:47:27.679Z,44.10
2023-04-04T16:50:01.121Z,44.15
2023-04-04T16:52:33.114Z,44.13
2023-04-04T16:55:02.915Z,44.28
2023-04-04T16:57:30.056Z,44.15
2023-04-04T16:59:58.014Z,43.96
2023-04-04T17:02:33.669Z,44.25
2023-04-04T17:05:07.819Z,44.08
2023-04-04T17:07:40.706Z,44.01
2023-04-04T17:10:09.869Z,44.11
2023-04-04T17:12:37.566Z,43.90
2023-04-04T17:15:18.143Z,43.76
2023-04-04T17:17:47.331Z,43.83
2023-04-04T17:20:18.944Z,43.71
2023-04-04T17:22:53.971Z,43.73
2023-04-04T17:25:36.963Z,43.82
2023-04-04T17:28:06.810Z,43.75
2023-04-04T17:30:35.109Z,43.79
2023-04-04T17:33:04.382Z,43.71
2023-04-04T17:35:39.272Z,43.59
2023-04-04T17:38:13.875Z,43.66
2023-04-04T17:40:42.278Z,44.04
2023-04-04T17:43:13.727Z,43.98
2023-04-04T17:45:44.901Z,44.19
2023-04-04T17:48:14.204Z,44.20
2023-04-04T17:50:43.251Z,44.49
2023-04-04T17:53:12.168Z,44.62
2023-04-04T17:55:44.152Z,44.69
2023-04-04T17:58:16.126Z,45.01
2023-04-04T18:00:44.949Z,45.15
2023-04-04T18:03:12.809Z,45.88
2023-04-04T18:05:39.871Z,46.95
2023-04-04T18:08:06.481Z,47.54
2023-04-04T18:10:37.894Z,48.45
2023-04-04T18:13:07.451Z,49.89
2023-04-04T18:15:38.785Z,48.77
2023-04-04T18:18:06.413Z,49.12
2023-04-04T18:20:35.261Z,49.43
2023-04-04T18:23:04.959Z,49.77
2023-04-04T18:25:34.866Z,50.71
2023-04-04T18:28:04.145Z,50.61
2023-04-04T18:30:37.332Z,50.73
2023-04-04T18:33:06.827Z,50.58
2023-04-04T18:35:38.267Z,51.15
2023-04-04T18:38:06.100Z,51.49
2023-04-04T18:40:32.965Z,51.09
2023-04-04T18:43:01.862Z,51.48
2023-04-04T18:45:39.279Z,51.58
2023-04-04T18:48:09.333Z,51.53
2023-04-04T18:50:38.458Z,51.92
2023-04-04T18:53:05.312Z,51.68
2023-04-04T18:55:32.305Z,52.03
2023-04-04T18:58:01.157Z,51.94
2023-04-04T19:00:27.825Z,52.01
2023-04-04T19:02:57.151Z,51.66
2023-04-04T19:05:26.693Z,51.62
2023-04-04T19:07:55.542Z,51.92
2023-04-04T19:10:22.268Z,51.74
2023-04-04T19:12:51.126Z,51.59
2023-04-04T19:15:20.602Z,51.42
2023-04-04T19:17:49.568Z,51.63
2023-04-04T19:20:18.951Z,51.59
2023-04-04T19:22:45.998Z,51.23
2023-04-04T19:25:15.087Z,51.63
2023-04-04T19:27:41.796Z,51.55
2023-04-04T19:30:47.353Z,51.29
2023-04-04T19:33:20.152Z,51.29
2023-04-04T19:36:11.553Z,51.31
2023-04-04T19:38:42.724Z,51.27
2023-04-04T19:41:13.254Z,51.07
2023-04-04T19:43:41.488Z,50.95
2023-04-04T19:46:09.575Z,50.86
2023-04-04T19:48:36.854Z,50.90
2023-04-04T19:51:10.754Z,50.78
2023-04-04T19:56:22.102Z,51.35
2023-04-04T19:59:01.187Z,51.11
2023-04-04T20:01:29.247Z,51.38
2023-04-04T20:04:03.770Z,51.30
2023-04-04T20:06:33.702Z,51.47
2023-04-04T20:09:02.005Z,51.64
2023-04-04T20:11:37.842Z,51.62
2023-04-04T20:14:11.016Z,51.63
2023-04-04T20:16:37.920Z,51.63
2023-04-04T20:19:08.291Z,51.67
2023-04-04T20:21:37.344Z,51.72
2023-04-04T20:24:08.196Z,51.56
2023-04-04T20:26:43.783Z,51.64
2023-04-04T20:29:13.585Z,51.78
2023-04-04T20:31:44.904Z,51.64
2023-04-04T20:34:43.771Z,51.75
2023-04-04T20:37:26.479Z,51.82
2023-04-04T20:39:56.017Z,51.73
2023-04-04T20:42:34.981Z,51.76
2023-04-04T20:45:13.665Z,51.83
2023-04-04T20:47:57.890Z,51.92
2023-04-04T20:50:27.248Z,51.90
2023-04-04T20:52:58.896Z,52.12
2023-04-04T20:55:28.506Z,52.06
2023-04-04T20:57:57.889Z,51.96
2023-04-04T21:00:34.095Z,52.16
2023-04-04T21:03:25.134Z,52.01
2023-04-04T21:05:59.499Z,51.98
2023-04-04T21:08:28.259Z,52.16
2023-04-04T21:10:58.058Z,52.08
2023-04-04T21:13:29.061Z,52.18
2023-04-04T21:16:01.382Z,52.17
2023-04-04T21:18:30.051Z,52.07
2023-04-04T21:21:06.007Z,52.00
2023-04-04T21:23:37.341Z,52.20
2023-04-04T21:26:05.075Z,52.15
2023-04-04T21:28:36.416Z,52.25
2023-04-04T21:31:12.166Z,52.15
2023-04-04T21:33:39.246Z,52.03
2023-04-04T21:36:06.103Z,51.99
2023-04-04T21:38:33.696Z,52.31
2023-04-04T21:41:24.242Z,52.01
2023-04-04T21:43:56.040Z,51.89
2023-04-04T21:46:28.659Z,35.30
2023-04-04T21:49:00.931Z,35.26
2023-04-04T21:51:33.188Z,35.16
2023-04-04T21:54:03.585Z,34.41
2023-04-04T21:56:37.199Z,35.78
2023-04-04T21:59:07.185Z,35.39
2023-04-04T22:01:34.011Z,35.13
2023-04-04T22:06:36.530Z,40.84
2023-04-04T22:09:17.527Z,44.31
2023-04-04T22:11:48.840Z,45.35
2023-04-04T22:14:18.281Z,45.98
2023-04-04T22:16:47.528Z,46.79
2023-04-04T22:19:16.646Z,47.02
2023-04-04T22:21:48.491Z,47.28
2023-04-04T22:24:15.765Z,47.80
2023-04-04T22:26:47.327Z,48.88
2023-04-04T22:29:16.212Z,48.98
2023-04-04T22:31:45.411Z,49.09
2023-04-04T22:34:15.397Z,49.57
2023-04-04T22:36:42.258Z,49.41
2023-04-04T22:39:09.009Z,49.90
2023-04-04T22:41:35.786Z,50.16
2023-04-04T22:44:02.397Z,50.37
2023-04-04T22:46:33.760Z,50.49
2023-04-04T22:49:07.222Z,50.53
2023-04-04T22:51:44.217Z,50.48
2023-04-04T22:54:14.812Z,50.52
2023-04-04T22:56:44.258Z,50.64
2023-04-04T22:59:13.493Z,50.90
2023-04-04T23:01:42.418Z,51.01
2023-04-04T23:04:09.247Z,50.99
2023-04-04T23:06:39.801Z,50.98
2023-04-04T23:09:09.445Z,51.01
2023-04-04T23:11:41.249Z,51.28
2023-04-04T23:14:15.348Z,51.38
2023-04-04T23:16:45.200Z,51.68
2023-04-04T23:19:15.184Z,51.47
2023-04-04T23:21:42.307Z,51.83
2023-04-04T23:24:13.729Z,51.96
2023-04-04T23:26:45.106Z,52.27
2023-04-04T23:29:11.836Z,52.38
2023-04-04T23:31:40.841Z,52.40
2023-04-04T23:34:12.219Z,52.82
2023-04-04T23:36:41.309Z,52.70
2023-04-04T23:39:10.763Z,52.44
2023-04-04T23:41:39.778Z,52.61
2023-04-04T23:44:09.819Z,52.64
2023-04-04T23:46:38.744Z,52.87
2023-04-04T23:49:11.474Z,52.72
2023-04-04T23:51:41.764Z,52.73
2023-04-04T23:54:11.775Z,52.79
2023-04-04T23:56:38.704Z,52.55
2023-04-04T23:59:07.985Z,52.70
